createdAt,value
2023-01-17T00:00:32.730Z,97590.03
2023-01-17T00:02:59.310Z,97590.03
2023-01-17T00:05:44.433Z,97589.94
2023-01-17T00:08:32.582Z,97588.19
2023-01-17T00:10:59.237Z,97572.81
2023-01-17T00:13:25.592Z,97594.41
2023-01-17T00:15:52.203Z,97587.66
2023-01-17T00:18:18.739Z,97578.28
2023-01-17T00:21:03.904Z,97579.31
2023-01-17T00:23:48.690Z,97584.06
2023-01-17T00:26:18.210Z,97582.59
2023-01-17T00:28:45.775Z,97580.31
2023-01-17T00:31:14.368Z,97579.66
2023-01-17T00:33:40.838Z,97579.88
2023-01-17T00:36:08.120Z,97577.44
2023-01-17T00:38:37.640Z,97566.34
2023-01-17T00:41:07.561Z,97574.31
2023-01-17T00:43:52.727Z,97577.00
2023-01-17T00:46:38.228Z,97573.50
2023-01-17T00:49:24.044Z,97572.31
2023-01-17T00:52:09.047Z,97570.44
2023-01-17T00:54:53.864Z,97580.47
2023-01-17T00:57:38.745Z,97581.75
2023-01-17T01:00:24.589Z,97581.16
2023-01-17T01:03:09.439Z,97573.94
2023-01-17T01:05:55.728Z,97578.75
2023-01-17T01:08:48.122Z,97581.06
2023-01-17T01:11:36.013Z,97583.53
2023-01-17T01:14:22.350Z,97581.94
2023-01-17T01:17:07.845Z,97579.69
2023-01-17T01:19:52.844Z,97583.09
2023-01-17T01:22:37.844Z,97579.44
2023-01-17T01:25:23.227Z,97585.16
2023-01-17T01:28:08.158Z,97583.69
2023-01-17T01:30:53.454Z,97579.97
2023-01-17T01:33:20.255Z,97580.38
2023-01-17T01:35:51.540Z,97573.28
2023-01-17T01:38:19.739Z,97570.59
2023-01-17T01:40:51.440Z,97563.44
2023-01-17T01:43:20.883Z,97561.03
2023-01-17T01:45:53.085Z,97565.41
2023-01-17T01:48:33.569Z,97559.97
2023-01-17T01:51:04.236Z,97562.88
2023-01-17T01:53:34.580Z,97557.13
2023-01-17T01:56:02.141Z,97559.59
2023-01-17T01:58:34.096Z,97558.22
2023-01-17T02:01:00.978Z,97553.97
2023-01-17T02:03:31.489Z,97552.56
2023-01-17T02:06:09.161Z,97552.22
2023-01-17T02:08:36.292Z,97559.78
2023-01-17T02:11:02.989Z,97560.44
2023-01-17T02:13:31.344Z,97560.03
2023-01-17T02:16:44.231Z,97553.91
2023-01-17T02:19:48.217Z,97553.75
2023-01-17T02:22:24.644Z,97559.88
2023-01-17T02:25:28.563Z,97554.19
2023-01-17T02:28:32.365Z,97551.25
2023-01-17T02:31:04.625Z,97554.69
2023-01-17T02:33:57.485Z,97558.56
2023-01-17T02:36:31.750Z,97556.91
2023-01-17T02:39:07.255Z,97567.81
2023-01-17T02:41:38.865Z,97559.38
2023-01-17T02:44:10.153Z,97560.19
2023-01-17T02:46:48.375Z,97563.72
2023-01-17T02:49:17.357Z,97551.59
2023-01-17T02:52:07.663Z,97551.16
2023-01-17T02:54:53.340Z,97553.59
2023-01-17T02:57:32.256Z,97549.25
2023-01-17T03:00:13.925Z,97546.34
2023-01-17T03:03:11.955Z,97550.97
2023-01-17T03:05:46.160Z,97547.09
2023-01-17T03:08:13.295Z,97549.97
2023-01-17T03:10:41.207Z,97554.88
2023-01-17T03:13:07.687Z,97557.00
2023-01-17T03:15:34.092Z,97551.81
2023-01-17T03:18:04.985Z,97546.00
2023-01-17T03:20:31.505Z,97546.63
2023-01-17T03:22:57.882Z,97550.44
2023-01-17T03:25:24.261Z,97553.59
2023-01-17T03:27:50.644Z,97548.47
2023-01-17T03:30:17.647Z,97545.00
2023-01-17T03:32:44.028Z,97545.06
2023-01-17T03:35:10.525Z,97551.28
2023-01-17T03:37:36.881Z,97560.72
2023-01-17T03:40:03.887Z,97550.69
2023-01-17T03:42:30.235Z,97560.16
2023-01-17T03:44:56.689Z,97556.91
2023-01-17T03:47:23.022Z,97561.19
2023-01-17T03:49:49.436Z,97560.84
2023-01-17T03:52:15.868Z,97563.44
2023-01-17T03:54:42.360Z,97562.63
2023-01-17T03:57:10.832Z,97564.78
2023-01-17T03:59:37.333Z,97571.09
2023-01-17T04:02:03.965Z,97562.13
2023-01-17T04:04:30.507Z,97562.66
2023-01-17T04:06:57.007Z,97560.69
2023-01-17T04:09:23.357Z,97563.28
2023-01-17T04:11:50.876Z,97558.19
2023-01-17T04:14:17.643Z,97555.50
2023-01-17T04:16:44.393Z,97567.31
2023-01-17T04:19:13.284Z,97569.94
2023-01-17T04:21:39.944Z,97569.13
2023-01-17T04:24:06.728Z,97571.91
2023-01-17T04:26:33.368Z,97573.66
2023-01-17T04:28:59.721Z,97582.41
2023-01-17T04:31:26.328Z,97582.84
2023-01-17T04:33:52.833Z,97576.34
2023-01-17T04:36:19.310Z,97584.94
2023-01-17T04:38:45.655Z,97581.34
2023-01-17T04:41:12.179Z,97589.59
2023-01-17T04:43:38.725Z,97593.44
2023-01-17T04:46:09.800Z,97598.53
2023-01-17T04:48:36.535Z,97594.28
2023-01-17T04:51:04.989Z,97596.00
2023-01-17T04:53:32.096Z,97608.19
2023-01-17T04:55:58.495Z,97608.41
2023-01-17T04:58:24.872Z,97609.63
2023-01-17T05:00:51.696Z,97627.91
2023-01-17T05:03:18.953Z,97617.28
2023-01-17T05:05:45.497Z,97616.69
2023-01-17T05:08:11.992Z,97624.53
2023-01-17T05:10:38.371Z,97616.28
2023-01-17T05:13:04.877Z,97624.78
2023-01-17T05:15:31.310Z,97617.72
2023-01-17T05:17:57.935Z,97619.75
2023-01-17T05:20:26.296Z,97615.19
2023-01-17T05:22:57.077Z,97628.88
2023-01-17T05:25:25.506Z,97632.03
2023-01-17T05:27:52.535Z,97627.44
2023-01-17T05:30:19.893Z,97635.34
2023-01-17T05:32:54.058Z,97628.94
2023-01-17T05:35:24.450Z,97649.53
2023-01-17T05:37:51.713Z,97644.38
2023-01-17T05:40:20.371Z,97653.22
2023-01-17T05:42:48.091Z,97652.41
2023-01-17T05:45:16.998Z,97663.66
2023-01-17T05:47:44.569Z,97662.91
2023-01-17T05:50:19.360Z,97668.31
2023-01-17T05:52:53.389Z,97672.97
2023-01-17T05:55:20.835Z,97671.47
2023-01-17T05:57:47.467Z,97684.81
2023-01-17T06:00:14.838Z,97693.28
2023-01-17T06:02:41.489Z,97692.66
2023-01-17T06:05:08.216Z,97698.41
2023-01-17T06:07:34.619Z,97692.09
2023-01-17T06:10:02.296Z,97708.13
2023-01-17T06:12:28.837Z,97711.38
2023-01-17T06:14:55.371Z,97721.41
2023-01-17T06:17:21.819Z,97715.41
2023-01-17T06:19:48.240Z,97729.69
2023-01-17T06:22:14.630Z,97728.03
2023-01-17T06:24:41.061Z,97740.47
2023-01-17T06:27:09.704Z,97747.47
2023-01-17T06:29:36.464Z,97748.97
2023-01-17T06:32:03.080Z,97764.50
2023-01-17T06:34:29.520Z,97768.63
2023-01-17T06:36:56.067Z,97769.03
2023-01-17T06:39:22.596Z,97784.19
2023-01-17T06:41:49.243Z,97791.94
2023-01-17T06:44:15.739Z,97801.28
2023-01-17T06:46:42.497Z,97804.09
2023-01-17T06:49:12.125Z,97809.09
2023-01-17T06:51:38.710Z,97825.47
2023-01-17T06:54:13.236Z,97817.69
2023-01-17T06:56:39.825Z,97835.34
2023-01-17T06:59:06.281Z,97830.81
2023-01-17T07:01:32.915Z,97839.25
2023-01-17T07:03:59.398Z,97849.81
2023-01-17T07:06:31.956Z,97862.84
2023-01-17T07:08:59.076Z,97864.47
2023-01-17T07:11:27.232Z,97873.81
2023-01-17T07:13:54.069Z,97876.41
2023-01-17T07:16:20.620Z,97875.22
2023-01-17T07:18:47.065Z,97885.91
2023-01-17T07:21:14.813Z,97891.69
2023-01-17T07:23:41.642Z,97894.53
2023-01-17T07:26:08.205Z,97900.47
2023-01-17T07:28:34.716Z,97909.97
2023-01-17T07:31:06.808Z,97914.78
2023-01-17T07:33:33.533Z,97923.06
2023-01-17T07:36:04.791Z,97918.94
2023-01-17T07:38:31.362Z,97929.38
2023-01-17T07:40:59.534Z,97936.69
2023-01-17T07:43:26.160Z,97945.59
2023-01-17T07:45:57.441Z,97941.25
2023-01-17T07:48:25.775Z,97951.22
2023-01-17T07:50:56.797Z,97962.41
2023-01-17T07:53:25.458Z,97955.56
2023-01-17T07:55:52.394Z,97970.03
2023-01-17T07:58:19.140Z,97977.88
2023-01-17T08:00:45.937Z,97986.31
2023-01-17T08:03:14.745Z,97995.09
2023-01-17T08:05:44.198Z,98002.66
2023-01-17T08:08:10.589Z,98004.97
2023-01-17T08:10:37.018Z,98015.25
2023-01-17T08:13:03.530Z,98018.50
2023-01-17T08:15:36.083Z,98038.13
2023-01-17T08:18:02.599Z,98051.81
2023-01-17T08:20:29.021Z,98047.63
2023-01-17T08:22:56.606Z,98039.69
2023-01-17T08:25:24.881Z,98040.16
2023-01-17T08:27:56.087Z,98049.25
2023-01-17T08:30:22.735Z,98051.41
2023-01-17T08:32:49.099Z,98050.22
2023-01-17T08:35:15.658Z,98053.53
2023-01-17T08:37:42.111Z,98055.97
2023-01-17T08:40:10.546Z,98060.94
2023-01-17T08:42:43.926Z,98061.25
2023-01-17T08:45:11.779Z,98069.31
2023-01-17T08:47:38.206Z,98081.09
2023-01-17T08:50:06.874Z,98075.84
2023-01-17T08:52:34.247Z,98084.22
2023-01-17T08:55:00.771Z,98090.09
2023-01-17T08:57:27.517Z,98084.88
2023-01-17T08:59:54.002Z,98089.78
2023-01-17T09:02:20.621Z,98089.16
2023-01-17T09:04:49.494Z,98109.09
2023-01-17T09:07:18.356Z,98106.31
2023-01-17T09:09:44.887Z,98113.50
2023-01-17T09:12:11.661Z,98125.31
2023-01-17T09:14:38.195Z,98134.97
2023-01-17T09:17:08.261Z,98130.75
2023-01-17T09:19:35.678Z,98131.25
2023-01-17T09:22:04.638Z,98124.69
2023-01-17T09:24:32.792Z,98135.56
2023-01-17T09:27:00.257Z,98144.25
2023-01-17T09:29:26.891Z,98137.81
2023-01-17T09:31:54.437Z,98146.56
2023-01-17T09:34:25.332Z,98148.41
2023-01-17T09:36:51.759Z,98157.59
2023-01-17T09:39:18.653Z,98163.44
2023-01-17T09:41:52.687Z,98160.09
2023-01-17T09:44:24.630Z,98183.34
2023-01-17T09:47:02.010Z,98171.84
2023-01-17T09:49:39.936Z,98182.50
2023-01-17T09:52:11.068Z,98203.78
2023-01-17T09:54:43.313Z,98198.84
2023-01-17T09:57:39.028Z,98199.84
2023-01-17T10:00:44.194Z,98194.50
2023-01-17T10:03:45.691Z,98198.16
2023-01-17T10:06:22.329Z,98195.34
2023-01-17T10:09:18.341Z,98195.41
2023-01-17T10:11:53.805Z,98188.66
2023-01-17T10:14:41.219Z,98194.97
2023-01-17T10:17:16.031Z,98200.66
2023-01-17T10:19:59.649Z,98199.72
2023-01-17T10:22:31.015Z,98206.19
2023-01-17T10:25:33.120Z,98210.50
2023-01-17T10:28:12.921Z,98202.38
2023-01-17T10:30:48.635Z,98212.41
2023-01-17T10:33:19.577Z,98207.84
2023-01-17T10:35:54.525Z,98209.59
2023-01-17T10:38:26.559Z,98217.47
2023-01-17T10:41:30.000Z,98216.47
2023-01-17T10:44:11.434Z,98213.75
2023-01-17T10:47:05.406Z,98212.47
2023-01-17T10:49:31.906Z,98214.97
2023-01-17T10:52:02.004Z,98222.91
2023-01-17T10:54:51.338Z,98218.13
2023-01-17T10:57:22.012Z,98221.22
2023-01-17T10:59:49.341Z,98225.81
2023-01-17T11:02:21.609Z,98229.41
2023-01-17T11:04:54.270Z,98227.25
2023-01-17T11:07:25.620Z,98235.47
2023-01-17T11:09:54.525Z,98238.44
2023-01-17T11:12:46.993Z,98244.72
2023-01-17T11:15:13.280Z,98236.53
2023-01-17T11:18:01.821Z,98245.13
2023-01-17T11:20:40.259Z,98243.28
2023-01-17T11:23:15.208Z,98229.56
2023-01-17T11:25:52.997Z,98249.81
2023-01-17T11:28:39.653Z,98244.63
2023-01-17T11:31:23.117Z,98258.50
2023-01-17T11:34:05.335Z,98246.38
2023-01-17T11:36:32.734Z,98247.19
2023-01-17T11:39:21.726Z,98247.81
2023-01-17T11:41:48.599Z,98252.06
2023-01-17T11:44:27.335Z,98247.22
2023-01-17T11:47:11.796Z,98240.16
2023-01-17T11:49:39.878Z,98240.22
2023-01-17T11:52:26.196Z,98236.38
2023-01-17T11:54:55.805Z,98241.34
2023-01-17T11:57:33.281Z,98245.63
2023-01-17T12:00:24.656Z,98239.19
2023-01-17T12:03:13.825Z,98240.50
2023-01-17T12:06:08.101Z,98248.59
2023-01-17T12:08:59.265Z,98245.13
2023-01-17T12:11:36.009Z,98256.94
2023-01-17T12:14:36.464Z,98270.28
2023-01-17T12:17:33.398Z,98265.22
2023-01-17T12:20:05.746Z,98263.88
2023-01-17T12:22:53.535Z,98265.50
2023-01-17T12:25:29.100Z,98285.44
2023-01-17T12:27:55.483Z,98278.41
2023-01-17T12:30:35.349Z,98280.50
2023-01-17T12:33:08.653Z,98282.59
2023-01-17T12:35:53.904Z,98283.38
2023-01-17T12:38:35.424Z,98276.75
2023-01-17T12:41:17.506Z,98277.09
2023-01-17T12:43:44.744Z,98289.19
2023-01-17T12:46:24.551Z,98285.38
2023-01-17T12:48:55.925Z,98288.75
2023-01-17T12:51:30.257Z,98284.31
2023-01-17T12:54:08.539Z,98295.47
2023-01-17T12:56:41.777Z,98302.94
2023-01-17T12:59:20.091Z,98302.06
2023-01-17T13:01:57.657Z,98306.22
2023-01-17T13:04:34.159Z,98305.91
2023-01-17T13:07:00.794Z,98318.78
2023-01-17T13:09:32.874Z,98314.88
2023-01-17T13:12:12.794Z,98324.22
2023-01-17T13:14:39.183Z,98323.59
2023-01-17T13:17:34.044Z,98325.63
2023-01-17T13:20:14.149Z,98321.97
2023-01-17T13:22:42.841Z,98324.69
2023-01-17T13:25:24.527Z,98322.31
2023-01-17T13:28:03.128Z,98320.94
2023-01-17T13:30:43.136Z,98336.31
2023-01-17T13:33:37.437Z,98330.84
2023-01-17T13:36:25.366Z,98331.59
2023-01-17T13:39:27.130Z,98340.81
2023-01-17T13:42:08.830Z,98349.50
2023-01-17T13:44:36.348Z,98349.94
2023-01-17T13:47:10.189Z,98349.41
2023-01-17T13:49:49.447Z,98347.22
2023-01-17T13:52:18.825Z,98357.59
2023-01-17T13:54:56.510Z,98364.22
2023-01-17T13:57:22.993Z,98365.91
2023-01-17T13:59:53.077Z,98374.41
2023-01-17T14:02:31.715Z,98376.03
2023-01-17T14:05:37.764Z,98372.78
2023-01-17T14:08:12.999Z,98378.16
2023-01-17T14:10:47.230Z,98380.03
2023-01-17T14:13:36.295Z,98381.16
2023-01-17T14:16:26.308Z,98390.50
2023-01-17T14:18:54.433Z,98396.41
2023-01-17T14:21:25.274Z,98393.94
2023-01-17T14:23:58.679Z,98401.94
2023-01-17T14:26:53.835Z,98405.69
2023-01-17T14:29:42.427Z,98404.34
2023-01-17T14:32:12.362Z,98401.91
2023-01-17T14:34:39.099Z,98405.88
2023-01-17T14:37:17.357Z,98407.72
2023-01-17T14:39:46.091Z,98411.06
2023-01-17T14:42:15.584Z,98407.47
2023-01-17T14:44:49.096Z,98416.94
2023-01-17T14:47:16.589Z,98416.63
2023-01-17T14:49:43.885Z,98418.22
2023-01-17T14:52:16.200Z,98425.34
2023-01-17T14:54:50.925Z,98436.94
2023-01-17T14:57:28.603Z,98430.66
2023-01-17T15:00:20.291Z,98433.72
2023-01-17T15:02:48.407Z,98435.31
2023-01-17T15:05:17.100Z,98438.50
2023-01-17T15:07:46.844Z,98430.72
2023-01-17T15:10:15.901Z,98434.16
2023-01-17T15:12:46.512Z,98440.00
2023-01-17T15:15:35.581Z,98443.81
2023-01-17T15:18:10.113Z,98439.09
2023-01-17T15:20:37.698Z,98443.56
2023-01-17T15:23:05.342Z,98448.09
2023-01-17T15:25:32.112Z,98461.28
2023-01-17T15:27:59.057Z,98451.69
2023-01-17T15:30:25.645Z,98464.63
2023-01-17T15:32:52.923Z,98479.50
2023-01-17T15:35:20.567Z,98469.44
2023-01-17T15:37:52.646Z,98463.56
2023-01-17T15:40:25.441Z,98467.50
2023-01-17T15:42:59.066Z,98479.88
2023-01-17T15:45:32.576Z,98483.41
2023-01-17T15:48:38.933Z,98480.19
2023-01-17T15:51:05.679Z,98478.44
2023-01-17T15:53:35.308Z,98477.47
2023-01-17T15:56:20.636Z,98489.56
2023-01-17T15:58:50.013Z,98482.03
2023-01-17T16:01:23.801Z,98476.91
2023-01-17T16:03:54.797Z,98474.03
2023-01-17T16:06:45.809Z,98481.38
2023-01-17T16:09:23.236Z,98480.75
2023-01-17T16:11:49.644Z,98483.34
2023-01-17T16:14:16.833Z,98495.63
2023-01-17T16:16:54.084Z,98495.78
2023-01-17T16:19:21.467Z,98502.97
2023-01-17T16:21:48.346Z,98520.25
2023-01-17T16:24:15.056Z,98509.31
2023-01-17T16:26:41.546Z,98513.63
2023-01-17T16:29:08.140Z,98513.59
2023-01-17T16:31:35.317Z,98516.28
2023-01-17T16:34:01.833Z,98522.22
2023-01-17T16:36:28.670Z,98519.63
2023-01-17T16:38:55.191Z,98530.22
2023-01-17T16:41:22.298Z,98530.44
2023-01-17T16:44:06.217Z,98522.13
2023-01-17T16:46:33.168Z,98528.22
2023-01-17T16:49:01.047Z,98528.16
2023-01-17T16:51:28.453Z,98532.47
2023-01-17T16:53:54.870Z,98539.50
2023-01-17T16:56:23.135Z,98542.25
2023-01-17T16:58:51.124Z,98544.94
2023-01-17T17:01:20.584Z,98551.94
2023-01-17T17:03:47.111Z,98548.72
2023-01-17T17:06:13.598Z,98559.31
2023-01-17T17:08:39.964Z,98566.34
2023-01-17T17:11:18.509Z,98556.16
2023-01-17T17:13:46.769Z,98562.78
2023-01-17T17:16:26.427Z,98566.31
2023-01-17T17:18:58.465Z,98568.22
2023-01-17T17:21:25.997Z,98564.09
2023-01-17T17:23:57.877Z,98571.78
2023-01-17T17:26:27.169Z,98576.94
2023-01-17T17:28:54.468Z,98577.97
2023-01-17T17:31:20.963Z,98589.19
2023-01-17T17:33:47.738Z,98592.72
2023-01-17T17:36:14.504Z,98599.66
2023-01-17T17:38:53.451Z,98593.66
2023-01-17T17:41:31.583Z,98596.03
2023-01-17T17:44:00.538Z,98602.94
2023-01-17T17:46:27.392Z,98606.63
2023-01-17T17:48:53.868Z,98603.16
2023-01-17T17:51:22.958Z,98608.16
2023-01-17T17:53:50.192Z,98603.75
2023-01-17T17:56:16.904Z,98618.69
2023-01-17T17:58:46.033Z,98623.28
2023-01-17T18:01:12.843Z,98620.09
2023-01-17T18:03:39.663Z,98618.53
2023-01-17T18:06:08.889Z,98622.03
2023-01-17T18:08:36.927Z,98617.81
2023-01-17T18:11:07.348Z,98623.00
2023-01-17T18:13:34.120Z,98626.63
2023-01-17T18:16:04.650Z,98626.72
2023-01-17T18:18:32.199Z,98638.78
2023-01-17T18:21:28.930Z,98639.63
2023-01-17T18:24:04.181Z,98639.84
2023-01-17T18:26:33.920Z,98637.28
2023-01-17T18:29:01.978Z,98637.28
2023-01-17T18:31:30.154Z,98647.69
2023-01-17T18:34:03.964Z,98640.91
2023-01-17T18:36:30.554Z,98646.97
2023-01-17T18:38:57.040Z,98658.06
2023-01-17T18:41:26.443Z,98668.50
2023-01-17T18:43:53.177Z,98651.47
2023-01-17T18:46:20.188Z,98660.00
2023-01-17T18:48:47.251Z,98654.78
2023-01-17T18:51:15.854Z,98662.56
2023-01-17T18:53:44.481Z,98660.84
2023-01-17T18:56:13.926Z,98659.09
2023-01-17T18:58:42.937Z,98666.88
2023-01-17T19:01:21.068Z,98663.41
2023-01-17T19:03:49.452Z,98660.00
2023-01-17T19:06:20.031Z,98659.25
2023-01-17T19:08:48.313Z,98667.06
2023-01-17T19:11:15.357Z,98656.75
2023-01-17T19:13:41.903Z,98665.31
2023-01-17T19:16:12.710Z,98668.78
2023-01-17T19:18:39.133Z,98665.47
2023-01-17T19:21:16.883Z,98669.78
2023-01-17T19:23:43.545Z,98673.03
2023-01-17T19:26:11.481Z,98680.53
2023-01-17T19:28:40.411Z,98675.47
2023-01-17T19:31:12.818Z,98674.69
2023-01-17T19:33:42.013Z,98675.47
2023-01-17T19:36:11.796Z,98672.09
2023-01-17T19:38:38.216Z,98687.69
2023-01-17T19:41:26.539Z,98676.53
2023-01-17T19:44:01.846Z,98683.25
2023-01-17T19:46:28.529Z,98690.44
2023-01-17T19:48:56.635Z,98685.28
2023-01-17T19:51:24.633Z,98688.69
2023-01-17T19:53:51.351Z,98687.91
2023-01-17T19:56:20.568Z,98682.75
2023-01-17T19:58:49.065Z,98689.53
2023-01-17T20:01:18.561Z,98693.84
2023-01-17T20:03:46.023Z,98694.66
2023-01-17T20:06:14.634Z,98704.19
2023-01-17T20:08:41.499Z,98694.91
2023-01-17T20:11:10.788Z,98694.06
2023-01-17T20:13:37.351Z,98702.66
2023-01-17T20:16:06.151Z,98699.22
2023-01-17T20:18:33.697Z,98704.50
2023-01-17T20:21:05.071Z,98706.19
2023-01-17T20:23:36.178Z,98701.09
2023-01-17T20:26:04.585Z,98708.06
2023-01-17T20:28:35.741Z,98709.03
2023-01-17T20:31:17.002Z,98706.38
2023-01-17T20:33:45.341Z,98711.34
2023-01-17T20:36:14.991Z,98721.66
2023-01-17T20:38:44.863Z,98711.50
2023-01-17T20:41:23.147Z,98714.09
2023-01-17T20:43:55.265Z,98714.78
2023-01-17T20:46:24.890Z,98707.13
2023-01-17T20:48:53.427Z,98712.38
2023-01-17T20:51:20.695Z,98719.25
2023-01-17T20:53:51.688Z,98719.09
2023-01-17T20:56:18.769Z,98725.16
2023-01-17T20:58:45.169Z,98727.66
2023-01-17T21:01:20.014Z,98729.50
2023-01-17T21:03:49.154Z,98724.34
2023-01-17T21:06:15.558Z,98719.13
2023-01-17T21:08:45.227Z,98725.97
2023-01-17T21:11:15.098Z,98719.34
2023-01-17T21:13:42.492Z,98729.66
2023-01-17T21:16:10.648Z,98727.91
2023-01-17T21:18:37.349Z,98733.97
2023-01-17T21:21:07.327Z,98724.56
2023-01-17T21:23:38.093Z,98729.59
2023-01-17T21:26:06.067Z,98725.34
2023-01-17T21:28:35.281Z,98736.50
2023-01-17T21:31:07.231Z,98740.03
2023-01-17T21:33:33.648Z,98747.03
2023-01-17T21:36:08.449Z,98748.78
2023-01-17T21:38:34.955Z,98747.28
2023-01-17T21:41:01.689Z,98751.69
2023-01-17T21:43:28.233Z,98753.53
2023-01-17T21:45:54.730Z,98751.97
2023-01-17T21:48:21.242Z,98748.72
2023-01-17T21:50:47.655Z,98746.09
2023-01-17T21:53:14.141Z,98749.66
2023-01-17T21:55:59.122Z,98753.31
2023-01-17T21:58:44.765Z,98751.72
2023-01-17T22:01:18.389Z,98759.50
2023-01-17T22:03:48.973Z,98768.97
2023-01-17T22:06:15.584Z,98767.28
2023-01-17T22:08:42.089Z,98781.00
2023-01-17T22:11:14.735Z,98775.84
2023-01-17T22:13:42.557Z,98783.53
2023-01-17T22:16:11.976Z,98791.13
2023-01-17T22:18:39.723Z,98794.56
2023-01-17T22:21:12.321Z,98786.81
2023-01-17T22:23:39.642Z,98789.41
2023-01-17T22:26:10.297Z,98794.44
2023-01-17T22:28:37.970Z,98803.03
2023-01-17T22:31:20.617Z,98815.22
2023-01-17T22:33:51.652Z,98816.19
2023-01-17T22:36:18.116Z,98818.91
2023-01-17T22:38:44.521Z,98819.16
2023-01-17T22:41:15.994Z,98823.59
2023-01-17T22:43:44.955Z,98831.38
2023-01-17T22:46:15.228Z,98832.34
2023-01-17T22:48:42.415Z,98833.34
2023-01-17T22:51:11.734Z,98832.44
2023-01-17T22:53:49.958Z,98824.91
2023-01-17T22:56:19.749Z,98824.09
2023-01-17T22:58:48.570Z,98824.97
2023-01-17T23:01:20.592Z,98820.59
2023-01-17T23:03:52.158Z,98823.31
2023-01-17T23:06:21.863Z,98826.09
2023-01-17T23:08:50.941Z,98827.69
2023-01-17T23:11:40.858Z,98831.75
2023-01-17T23:14:16.712Z,98838.25
2023-01-17T23:17:04.680Z,98832.22
2023-01-17T23:19:42.225Z,98832.44
2023-01-17T23:22:18.911Z,98836.84
2023-01-17T23:24:53.955Z,98831.06
2023-01-17T23:27:47.632Z,98842.13
2023-01-17T23:30:15.683Z,98845.47
2023-01-17T23:32:47.933Z,98846.06
2023-01-17T23:35:15.430Z,98845.13
2023-01-17T23:38:00.460Z,98851.13
2023-01-17T23:40:27.324Z,98850.28
2023-01-17T23:43:12.416Z,98858.25
2023-01-17T23:45:39.533Z,98864.44
2023-01-17T23:48:11.554Z,98862.69
2023-01-17T23:50:40.277Z,98867.81
2023-01-17T23:53:07.415Z,98870.47
2023-01-17T23:55:40.232Z,98869.66
2023-01-17T23:58:09.672Z,98873.09
